sensor_id;sensor_type;location;lat;lon;timestamp;P1;durP1;ratioP1;P2;durP2;ratioP2
62903;SDS011;49000;50.698;13.322;2023-03-21T00:01:09;11.73;;;8.70;;
62903;SDS011;49000;50.698;13.322;2023-03-21T00:03:37;13.47;;;8.33;;
62903;SDS011;49000;50.698;13.322;2023-03-21T00:06:06;11.87;;;7.93;;
62903;SDS011;49000;50.698;13.322;2023-03-21T00:08:35;12.30;;;8.53;;
62903;SDS011;49000;50.698;13.322;2023-03-21T00:11:02;12.20;;;7.90;;
62903;SDS011;49000;50.698;13.322;2023-03-21T00:13:30;10.60;;;7.83;;
62903;SDS011;49000;50.698;13.322;2023-03-21T00:16:06;10.63;;;6.60;;
62903;SDS011;49000;50.698;13.322;2023-03-21T00:18:33;9.53;;;6.80;;
62903;SDS011;49000;50.698;13.322;2023-03-21T00:21:05;10.10;;;6.80;;
62903;SDS011;49000;50.698;13.322;2023-03-21T00:23:32;10.40;;;7.23;;
62903;SDS011;49000;50.698;13.322;2023-03-21T00:25:58;10.00;;;7.03;;
62903;SDS011;49000;50.698;13.322;2023-03-21T00:28:24;12.00;;;7.37;;
62903;SDS011;49000;50.698;13.322;2023-03-21T00:30:50;10.83;;;6.87;;
62903;SDS011;49000;50.698;13.322;2023-03-21T00:33:20;11.30;;;7.57;;
62903;SDS011;49000;50.698;13.322;2023-03-21T00:35:46;12.23;;;8.00;;
62903;SDS011;49000;50.698;13.322;2023-03-21T00:38:16;10.30;;;7.33;;
62903;SDS011;49000;50.698;13.322;2023-03-21T00:40:42;12.10;;;7.33;;
62903;SDS011;49000;50.698;13.322;2023-03-21T00:43:09;9.70;;;7.10;;
62903;SDS011;49000;50.698;13.322;2023-03-21T00:45:35;10.97;;;7.93;;
62903;SDS011;49000;50.698;13.322;2023-03-21T00:48:02;11.57;;;7.50;;
62903;SDS011;49000;50.698;13.322;2023-03-21T00:50:28;9.90;;;6.80;;
62903;SDS011;49000;50.698;13.322;2023-03-21T00:52:53;10.37;;;6.83;;
62903;SDS011;49000;50.698;13.322;2023-03-21T00:55:19;13.10;;;7.37;;
62903;SDS011;49000;50.698;13.322;2023-03-21T00:57:45;8.70;;;6.57;;
62903;SDS011;49000;50.698;13.322;2023-03-21T01:00:11;13.57;;;6.80;;
62903;SDS011;49000;50.698;13.322;2023-03-21T01:02:38;8.17;;;5.97;;
62903;SDS011;49000;50.698;13.322;2023-03-21T01:05:24;9.60;;;6.03;;
62903;SDS011;49000;50.698;13.322;2023-03-21T01:08:10;9.43;;;6.03;;
62903;SDS011;49000;50.698;13.322;2023-03-21T01:10:39;10.30;;;6.80;;
62903;SDS011;49000;50.698;13.322;2023-03-21T01:13:09;10.17;;;6.13;;
62903;SDS011;49000;50.698;13.322;2023-03-21T01:15:36;9.17;;;4.90;;
62903;SDS011;49000;50.698;13.322;2023-03-21T01:18:07;9.57;;;6.20;;
62903;SDS011;49000;50.698;13.322;2023-03-21T01:20:33;7.37;;;5.13;;
62903;SDS011;49000;50.698;13.322;2023-03-21T01:22:59;6.87;;;4.90;;
62903;SDS011;49000;50.698;13.322;2023-03-21T01:25:25;7.37;;;5.13;;
62903;SDS011;49000;50.698;13.322;2023-03-21T01:27:50;6.10;;;4.37;;
62903;SDS011;49000;50.698;13.322;2023-03-21T01:30:16;6.37;;;4.50;;
62903;SDS011;49000;50.698;13.322;2023-03-21T01:32:42;7.03;;;4.90;;
62903;SDS011;49000;50.698;13.322;2023-03-21T01:35:07;7.43;;;4.83;;
62903;SDS011;49000;50.698;13.322;2023-03-21T01:37:33;6.10;;;4.77;;
62903;SDS011;49000;50.698;13.322;2023-03-21T01:39:58;6.93;;;4.03;;
62903;SDS011;49000;50.698;13.322;2023-03-21T01:42:24;7.80;;;4.73;;
62903;SDS011;49000;50.698;13.322;2023-03-21T01:44:51;9.77;;;4.70;;
62903;SDS011;49000;50.698;13.322;2023-03-21T01:47:21;6.43;;;4.63;;
62903;SDS011;49000;50.698;13.322;2023-03-21T01:49:48;7.47;;;5.07;;
62903;SDS011;49000;50.698;13.322;2023-03-21T01:52:17;7.03;;;4.23;;
62903;SDS011;49000;50.698;13.322;2023-03-21T01:54:48;7.17;;;4.17;;
62903;SDS011;49000;50.698;13.322;2023-03-21T01:57:20;6.90;;;4.50;;
62903;SDS011;49000;50.698;13.322;2023-03-21T01:59:56;7.83;;;4.47;;
62903;SDS011;49000;50.698;13.322;2023-03-21T02:02:28;6.63;;;4.67;;
62903;SDS011;49000;50.698;13.322;2023-03-21T02:04:55;6.50;;;4.47;;
62903;SDS011;49000;50.698;13.322;2023-03-21T02:07:29;7.33;;;4.83;;
62903;SDS011;49000;50.698;13.322;2023-03-21T02:09:59;7.40;;;4.50;;
62903;SDS011;49000;50.698;13.322;2023-03-21T02:12:27;7.23;;;3.80;;
62903;SDS011;49000;50.698;13.322;2023-03-21T02:14:53;6.60;;;4.40;;
62903;SDS011;49000;50.698;13.322;2023-03-21T02:17:32;7.17;;;4.77;;
62903;SDS011;49000;50.698;13.322;2023-03-21T02:23:09;6.37;;;4.50;;
62903;SDS011;49000;50.698;13.322;2023-03-21T02:28:35;6.70;;;4.83;;
62903;SDS011;49000;50.698;13.322;2023-03-21T02:31:27;5.67;;;4.40;;
62903;SDS011;49000;50.698;13.322;2023-03-21T02:34:14;6.80;;;4.50;;
62903;SDS011;49000;50.698;13.322;2023-03-21T02:36:47;6.80;;;4.30;;
62903;SDS011;49000;50.698;13.322;2023-03-21T02:39:23;7.00;;;4.13;;
62903;SDS011;49000;50.698;13.322;2023-03-21T02:42:02;6.20;;;4.13;;
62903;SDS011;49000;50.698;13.322;2023-03-21T02:44:41;8.20;;;4.40;;
62903;SDS011;49000;50.698;13.322;2023-03-21T02:47:12;6.90;;;4.50;;
62903;SDS011;49000;50.698;13.322;2023-03-21T02:49:46;7.40;;;4.30;;
62903;SDS011;49000;50.698;13.322;2023-03-21T02:52:30;7.13;;;3.80;;
62903;SDS011;49000;50.698;13.322;2023-03-21T02:54:57;7.13;;;4.00;;
62903;SDS011;49000;50.698;13.322;2023-03-21T02:57:25;7.53;;;4.27;;
62903;SDS011;49000;50.698;13.322;2023-03-21T02:59:51;6.33;;;3.97;;
62903;SDS011;49000;50.698;13.322;2023-03-21T03:02:20;7.17;;;3.80;;
62903;SDS011;49000;50.698;13.322;2023-03-21T03:04:48;4.97;;;3.63;;
62903;SDS011;49000;50.698;13.322;2023-03-21T03:07:18;7.47;;;3.37;;
62903;SDS011;49000;50.698;13.322;2023-03-21T03:09:57;6.47;;;3.80;;
62903;SDS011;49000;50.698;13.322;2023-03-21T03:12:42;7.03;;;3.60;;
62903;SDS011;49000;50.698;13.322;2023-03-21T03:15:21;5.93;;;3.47;;
62903;SDS011;49000;50.698;13.322;2023-03-21T03:20:35;5.53;;;3.70;;
62903;SDS011;49000;50.698;13.322;2023-03-21T03:23:17;5.60;;;3.53;;
62903;SDS011;49000;50.698;13.322;2023-03-21T03:26:04;6.90;;;3.73;;
62903;SDS011;49000;50.698;13.322;2023-03-21T03:28:51;5.33;;;3.23;;
62903;SDS011;49000;50.698;13.322;2023-03-21T03:31:23;5.33;;;3.37;;
62903;SDS011;49000;50.698;13.322;2023-03-21T03:33:53;5.67;;;3.67;;
62903;SDS011;49000;50.698;13.322;2023-03-21T03:36:22;4.90;;;3.13;;
62903;SDS011;49000;50.698;13.322;2023-03-21T03:38:51;5.07;;;3.23;;
62903;SDS011;49000;50.698;13.322;2023-03-21T03:41:20;5.40;;;3.13;;
62903;SDS011;49000;50.698;13.322;2023-03-21T03:43:51;5.97;;;2.80;;
62903;SDS011;49000;50.698;13.322;2023-03-21T03:46:26;4.40;;;3.07;;
62903;SDS011;49000;50.698;13.322;2023-03-21T03:48:59;4.00;;;2.67;;
62903;SDS011;49000;50.698;13.322;2023-03-21T03:51:28;5.57;;;3.13;;
62903;SDS011;49000;50.698;13.322;2023-03-21T03:54:07;4.67;;;3.13;;
62903;SDS011;49000;50.698;13.322;2023-03-21T03:56:41;6.80;;;3.30;;
62903;SDS011;49000;50.698;13.322;2023-03-21T03:59:07;5.60;;;3.10;;
62903;SDS011;49000;50.698;13.322;2023-03-21T04:01:33;7.10;;;3.53;;
62903;SDS011;49000;50.698;13.322;2023-03-21T04:03:59;4.43;;;3.13;;
62903;SDS011;49000;50.698;13.322;2023-03-21T04:06:25;5.30;;;3.47;;
62903;SDS011;49000;50.698;13.322;2023-03-21T04:08:52;4.70;;;3.10;;
62903;SDS011;49000;50.698;13.322;2023-03-21T04:11:20;6.23;;;3.50;;
62903;SDS011;49000;50.698;13.322;2023-03-21T04:13:46;5.33;;;2.97;;
62903;SDS011;49000;50.698;13.322;2023-03-21T04:16:12;4.53;;;3.07;;
62903;SDS011;49000;50.698;13.322;2023-03-21T04:18:38;5.30;;;3.63;;
62903;SDS011;49000;50.698;13.322;2023-03-21T04:21:10;7.47;;;4.60;;
62903;SDS011;49000;50.698;13.322;2023-03-21T04:23:37;5.13;;;3.67;;
62903;SDS011;49000;50.698;13.322;2023-03-21T04:26:04;5.00;;;3.00;;
62903;SDS011;49000;50.698;13.322;2023-03-21T04:28:30;7.17;;;4.23;;
62903;SDS011;49000;50.698;13.322;2023-03-21T04:30:57;6.80;;;4.30;;
62903;SDS011;49000;50.698;13.322;2023-03-21T04:33:23;7.70;;;4.37;;
62903;SDS011;49000;50.698;13.322;2023-03-21T04:35:56;8.07;;;4.43;;
62903;SDS011;49000;50.698;13.322;2023-03-21T04:38:23;6.93;;;4.53;;
62903;SDS011;49000;50.698;13.322;2023-03-21T04:40:50;7.00;;;4.53;;
62903;SDS011;49000;50.698;13.322;2023-03-21T04:43:16;6.20;;;4.47;;
62903;SDS011;49000;50.698;13.322;2023-03-21T04:45:41;8.60;;;4.20;;
62903;SDS011;49000;50.698;13.322;2023-03-21T04:48:07;6.13;;;4.27;;
62903;SDS011;49000;50.698;13.322;2023-03-21T04:50:33;7.53;;;4.13;;
62903;SDS011;49000;50.698;13.322;2023-03-21T04:52:58;8.33;;;4.37;;
62903;SDS011;49000;50.698;13.322;2023-03-21T04:55:24;5.73;;;3.93;;
62903;SDS011;49000;50.698;13.322;2023-03-21T04:57:52;6.70;;;3.80;;
62903;SDS011;49000;50.698;13.322;2023-03-21T05:00:17;5.97;;;4.30;;
62903;SDS011;49000;50.698;13.322;2023-03-21T05:02:43;7.70;;;4.50;;
62903;SDS011;49000;50.698;13.322;2023-03-21T05:05:09;7.07;;;3.80;;
62903;SDS011;49000;50.698;13.322;2023-03-21T05:07:39;7.37;;;4.10;;
62903;SDS011;49000;50.698;13.322;2023-03-21T05:10:06;8.80;;;4.13;;
62903;SDS011;49000;50.698;13.322;2023-03-21T05:12:34;6.23;;;4.43;;
62903;SDS011;49000;50.698;13.322;2023-03-21T05:14:59;9.67;;;4.77;;
62903;SDS011;49000;50.698;13.322;2023-03-21T05:17:25;8.57;;;4.07;;
62903;SDS011;49000;50.698;13.322;2023-03-21T05:19:52;8.97;;;5.00;;
62903;SDS011;49000;50.698;13.322;2023-03-21T05:22:20;10.17;;;5.00;;
62903;SDS011;49000;50.698;13.322;2023-03-21T05:24:48;8.47;;;4.53;;
62903;SDS011;49000;50.698;13.322;2023-03-21T05:27:15;7.53;;;4.67;;
62903;SDS011;49000;50.698;13.322;2023-03-21T05:29:57;9.23;;;4.43;;
62903;SDS011;49000;50.698;13.322;2023-03-21T05:32:31;8.57;;;5.03;;
62903;SDS011;49000;50.698;13.322;2023-03-21T05:34:57;7.93;;;4.60;;
62903;SDS011;49000;50.698;13.322;2023-03-21T05:37:22;8.40;;;5.00;;
62903;SDS011;49000;50.698;13.322;2023-03-21T05:39:48;9.97;;;4.60;;
62903;SDS011;49000;50.698;13.322;2023-03-21T05:42:14;9.83;;;5.17;;
62903;SDS011;49000;50.698;13.322;2023-03-21T05:44:40;11.50;;;5.17;;
62903;SDS011;49000;50.698;13.322;2023-03-21T05:47:05;7.53;;;5.20;;
62903;SDS011;49000;50.698;13.322;2023-03-21T05:49:31;7.47;;;4.80;;
62903;SDS011;49000;50.698;13.322;2023-03-21T05:51:56;9.93;;;5.30;;
62903;SDS011;49000;50.698;13.322;2023-03-21T05:54:22;7.60;;;4.87;;
62903;SDS011;49000;50.698;13.322;2023-03-21T05:56:48;9.63;;;4.80;;
62903;SDS011;49000;50.698;13.322;2023-03-21T05:59:14;7.47;;;5.87;;
62903;SDS011;49000;50.698;13.322;2023-03-21T06:01:40;7.87;;;5.50;;
62903;SDS011;49000;50.698;13.322;2023-03-21T06:04:06;6.83;;;4.83;;
62903;SDS011;49000;50.698;13.322;2023-03-21T06:06:31;9.30;;;5.40;;
62903;SDS011;49000;50.698;13.322;2023-03-21T06:08:57;8.27;;;4.63;;
62903;SDS011;49000;50.698;13.322;2023-03-21T06:11:23;10.10;;;5.07;;
62903;SDS011;49000;50.698;13.322;2023-03-21T06:13:51;7.20;;;4.20;;
62903;SDS011;49000;50.698;13.322;2023-03-21T06:16:17;7.70;;;4.33;;
62903;SDS011;49000;50.698;13.322;2023-03-21T06:18:42;7.03;;;4.80;;
62903;SDS011;49000;50.698;13.322;2023-03-21T06:21:08;8.97;;;4.03;;
62903;SDS011;49000;50.698;13.322;2023-03-21T06:23:33;7.63;;;4.50;;
62903;SDS011;49000;50.698;13.322;2023-03-21T06:26:01;31.23;;;15.13;;
62903;SDS011;49000;50.698;13.322;2023-03-21T06:28:27;8.67;;;5.23;;
62903;SDS011;49000;50.698;13.322;2023-03-21T06:30:52;5.93;;;3.80;;
62903;SDS011;49000;50.698;13.322;2023-03-21T06:33:18;6.70;;;4.00;;
62903;SDS011;49000;50.698;13.322;2023-03-21T06:35:43;7.47;;;4.13;;
62903;SDS011;49000;50.698;13.322;2023-03-21T06:38:09;8.07;;;4.50;;
62903;SDS011;49000;50.698;13.322;2023-03-21T06:40:36;6.60;;;4.67;;
62903;SDS011;49000;50.698;13.322;2023-03-21T06:43:02;8.27;;;4.50;;
62903;SDS011;49000;50.698;13.322;2023-03-21T06:45:27;7.50;;;5.13;;
62903;SDS011;49000;50.698;13.322;2023-03-21T06:47:53;10.00;;;4.80;;
62903;SDS011;49000;50.698;13.322;2023-03-21T06:50:18;9.07;;;4.47;;
62903;SDS011;49000;50.698;13.322;2023-03-21T06:52:44;9.20;;;4.63;;
62903;SDS011;49000;50.698;13.322;2023-03-21T06:55:09;6.50;;;4.03;;
62903;SDS011;49000;50.698;13.322;2023-03-21T06:57:35;6.27;;;4.70;;
62903;SDS011;49000;50.698;13.322;2023-03-21T07:00:00;6.60;;;4.53;;
62903;SDS011;49000;50.698;13.322;2023-03-21T07:02:27;6.83;;;4.53;;
62903;SDS011;49000;50.698;13.322;2023-03-21T07:04:53;9.07;;;4.57;;
62903;SDS011;49000;50.698;13.322;2023-03-21T07:07:18;6.87;;;4.33;;
62903;SDS011;49000;50.698;13.322;2023-03-21T07:09:44;7.67;;;4.67;;
62903;SDS011;49000;50.698;13.322;2023-03-21T07:12:09;7.20;;;4.67;;
62903;SDS011;49000;50.698;13.322;2023-03-21T07:14:35;7.53;;;5.27;;
62903;SDS011;49000;50.698;13.322;2023-03-21T07:17:00;7.17;;;5.30;;
62903;SDS011;49000;50.698;13.322;2023-03-21T07:19:26;9.50;;;4.70;;
62903;SDS011;49000;50.698;13.322;2023-03-21T07:21:51;6.90;;;5.53;;
62903;SDS011;49000;50.698;13.322;2023-03-21T07:24:17;9.53;;;5.53;;
62903;SDS011;49000;50.698;13.322;2023-03-21T07:26:42;5.57;;;4.40;;
62903;SDS011;49000;50.698;13.322;2023-03-21T07:29:08;6.07;;;5.13;;
62903;SDS011;49000;50.698;13.322;2023-03-21T07:31:33;5.33;;;4.30;;
62903;SDS011;49000;50.698;13.322;2023-03-21T07:33:59;5.23;;;4.23;;
62903;SDS011;49000;50.698;13.322;2023-03-21T07:36:25;5.87;;;3.97;;
62903;SDS011;49000;50.698;13.322;2023-03-21T07:38:50;6.37;;;4.70;;
62903;SDS011;49000;50.698;13.322;2023-03-21T07:41:16;5.63;;;4.60;;
62903;SDS011;49000;50.698;13.322;2023-03-21T07:43:41;4.90;;;4.00;;
62903;SDS011;49000;50.698;13.322;2023-03-21T07:46:07;6.70;;;4.10;;
62903;SDS011;49000;50.698;13.322;2023-03-21T07:48:32;5.87;;;4.17;;
62903;SDS011;49000;50.698;13.322;2023-03-21T07:50:58;6.13;;;4.43;;
62903;SDS011;49000;50.698;13.322;2023-03-21T07:53:24;5.77;;;3.87;;
62903;SDS011;49000;50.698;13.322;2023-03-21T07:55:50;6.90;;;4.60;;
62903;SDS011;49000;50.698;13.322;2023-03-21T07:58:16;7.53;;;4.30;;
62903;SDS011;49000;50.698;13.322;2023-03-21T08:00:42;4.90;;;3.80;;
62903;SDS011;49000;50.698;13.322;2023-03-21T08:03:08;4.63;;;3.53;;
62903;SDS011;49000;50.698;13.322;2023-03-21T08:05:35;7.53;;;3.73;;
62903;SDS011;49000;50.698;13.322;2023-03-21T08:08:02;4.67;;;3.90;;
62903;SDS011;49000;50.698;13.322;2023-03-21T08:10:28;4.63;;;3.73;;
62903;SDS011;49000;50.698;13.322;2023-03-21T08:12:54;4.93;;;3.83;;
62903;SDS011;49000;50.698;13.322;2023-03-21T08:15:20;4.97;;;3.77;;
62903;SDS011;49000;50.698;13.322;2023-03-21T08:17:45;4.10;;;3.67;;
62903;SDS011;49000;50.698;13.322;2023-03-21T08:20:12;5.17;;;3.80;;
62903;SDS011;49000;50.698;13.322;2023-03-21T08:22:41;5.80;;;3.80;;
62903;SDS011;49000;50.698;13.322;2023-03-21T08:25:07;5.37;;;3.73;;
62903;SDS011;49000;50.698;13.322;2023-03-21T08:27:37;5.47;;;3.77;;
62903;SDS011;49000;50.698;13.322;2023-03-21T08:30:02;6.00;;;4.27;;
62903;SDS011;49000;50.698;13.322;2023-03-21T08:32:28;5.07;;;3.17;;
62903;SDS011;49000;50.698;13.322;2023-03-21T08:34:57;4.70;;;3.13;;
62903;SDS011;49000;50.698;13.322;2023-03-21T08:37:24;4.20;;;2.90;;
62903;SDS011;49000;50.698;13.322;2023-03-21T08:39:51;5.33;;;3.07;;
62903;SDS011;49000;50.698;13.322;2023-03-21T08:42:16;5.20;;;2.30;;
62903;SDS011;49000;50.698;13.322;2023-03-21T08:44:43;3.77;;;2.53;;
62903;SDS011;49000;50.698;13.322;2023-03-21T08:47:08;3.97;;;2.60;;
62903;SDS011;49000;50.698;13.322;2023-03-21T08:49:34;4.70;;;2.97;;
62903;SDS011;49000;50.698;13.322;2023-03-21T08:52:00;6.27;;;2.80;;
62903;SDS011;49000;50.698;13.322;2023-03-21T08:54:26;2.73;;;2.13;;
62903;SDS011;49000;50.698;13.322;2023-03-21T08:56:52;4.10;;;1.97;;
62903;SDS011;49000;50.698;13.322;2023-03-21T08:59:17;2.70;;;1.77;;
62903;SDS011;49000;50.698;13.322;2023-03-21T09:01:43;3.77;;;2.40;;
62903;SDS011;49000;50.698;13.322;2023-03-21T09:04:09;2.57;;;1.80;;
62903;SDS011;49000;50.698;13.322;2023-03-21T09:06:38;9.13;;;1.83;;
62903;SDS011;49000;50.698;13.322;2023-03-21T09:09:15;3.80;;;2.30;;
62903;SDS011;49000;50.698;13.322;2023-03-21T09:11:40;3.13;;;2.60;;
62903;SDS011;49000;50.698;13.322;2023-03-21T09:14:06;3.80;;;2.87;;
62903;SDS011;49000;50.698;13.322;2023-03-21T09:16:32;3.87;;;2.50;;
62903;SDS011;49000;50.698;13.322;2023-03-21T09:18:58;2.63;;;2.03;;
62903;SDS011;49000;50.698;13.322;2023-03-21T09:21:24;3.97;;;2.70;;
62903;SDS011;49000;50.698;13.322;2023-03-21T09:23:51;3.77;;;2.50;;
62903;SDS011;49000;50.698;13.322;2023-03-21T09:26:19;2.50;;;2.30;;
62903;SDS011;49000;50.698;13.322;2023-03-21T09:28:44;3.50;;;2.40;;
62903;SDS011;49000;50.698;13.322;2023-03-21T09:31:11;5.30;;;2.50;;
62903;SDS011;49000;50.698;13.322;2023-03-21T09:33:38;3.57;;;2.80;;
62903;SDS011;49000;50.698;13.322;2023-03-21T09:36:05;3.47;;;2.97;;
62903;SDS011;49000;50.698;13.322;2023-03-21T09:38:36;3.43;;;3.00;;
62903;SDS011;49000;50.698;13.322;2023-03-21T09:46:38;3.03;;;2.50;;
62903;SDS011;49000;50.698;13.322;2023-03-21T09:49:34;3.97;;;2.13;;
62903;SDS011;49000;50.698;13.322;2023-03-21T09:52:16;3.50;;;2.30;;
62903;SDS011;49000;50.698;13.322;2023-03-21T09:54:47;4.57;;;2.10;;
62903;SDS011;49000;50.698;13.322;2023-03-21T09:57:26;3.23;;;2.43;;
62903;SDS011;49000;50.698;13.322;2023-03-21T09:59:58;4.33;;;2.13;;
62903;SDS011;49000;50.698;13.322;2023-03-21T10:02:41;3.30;;;2.23;;
62903;SDS011;49000;50.698;13.322;2023-03-21T10:07:56;2.97;;;2.10;;
62903;SDS011;49000;50.698;13.322;2023-03-21T10:10:29;2.53;;;1.60;;
62903;SDS011;49000;50.698;13.322;2023-03-21T10:13:01;2.30;;;1.57;;
62903;SDS011;49000;50.698;13.322;2023-03-21T10:15:34;1.53;;;1.40;;
62903;SDS011;49000;50.698;13.322;2023-03-21T10:18:01;1.97;;;1.43;;
62903;SDS011;49000;50.698;13.322;2023-03-21T10:20:30;1.60;;;1.40;;
62903;SDS011;49000;50.698;13.322;2023-03-21T10:22:59;1.93;;;1.40;;
62903;SDS011;49000;50.698;13.322;2023-03-21T10:25:31;1.73;;;1.20;;
62903;SDS011;49000;50.698;13.322;2023-03-21T10:28:03;1.87;;;1.40;;
62903;SDS011;49000;50.698;13.322;2023-03-21T10:30:43;1.57;;;1.20;;
62903;SDS011;49000;50.698;13.322;2023-03-21T10:33:16;1.43;;;1.33;;
62903;SDS011;49000;50.698;13.322;2023-03-21T10:35:51;1.80;;;1.33;;
62903;SDS011;49000;50.698;13.322;2023-03-21T10:38:23;1.57;;;0.90;;
62903;SDS011;49000;50.698;13.322;2023-03-21T10:40:49;0.83;;;0.80;;
62903;SDS011;49000;50.698;13.322;2023-03-21T10:45:58;0.80;;;0.80;;
62903;SDS011;49000;50.698;13.322;2023-03-21T10:48:34;0.80;;;0.80;;
62903;SDS011;49000;50.698;13.322;2023-03-21T10:51:00;1.03;;;0.90;;
62903;SDS011;49000;50.698;13.322;2023-03-21T10:53:26;1.33;;;0.90;;
62903;SDS011;49000;50.698;13.322;2023-03-21T10:55:56;1.50;;;1.00;;
62903;SDS011;49000;50.698;13.322;2023-03-21T10:58:24;0.60;;;0.60;;
62903;SDS011;49000;50.698;13.322;2023-03-21T11:00:53;0.90;;;0.77;;
62903;SDS011;49000;50.698;13.322;2023-03-21T11:03:37;0.80;;;0.70;;
62903;SDS011;49000;50.698;13.322;2023-03-21T11:06:12;0.57;;;0.50;;
62903;SDS011;49000;50.698;13.322;2023-03-21T11:08:48;1.43;;;0.63;;
62903;SDS011;49000;50.698;13.322;2023-03-21T11:11:19;0.73;;;0.60;;
62903;SDS011;49000;50.698;13.322;2023-03-21T11:13:54;1.43;;;0.60;;
62903;SDS011;49000;50.698;13.322;2023-03-21T11:16:24;0.60;;;0.50;;
62903;SDS011;49000;50.698;13.322;2023-03-21T11:18:56;0.57;;;0.40;;
62903;SDS011;49000;50.698;13.322;2023-03-21T11:21:26;0.73;;;0.60;;
62903;SDS011;49000;50.698;13.322;2023-03-21T11:23:53;0.57;;;0.40;;
62903;SDS011;49000;50.698;13.322;2023-03-21T11:26:30;0.57;;;0.43;;
62903;SDS011;49000;50.698;13.322;2023-03-21T11:29:05;1.07;;;0.90;;
62903;SDS011;49000;50.698;13.322;2023-03-21T11:31:39;0.50;;;0.40;;
62903;SDS011;49000;50.698;13.322;2023-03-21T11:34:05;0.50;;;0.40;;
62903;SDS011;49000;50.698;13.322;2023-03-21T11:36:33;0.53;;;0.50;;
62903;SDS011;49000;50.698;13.322;2023-03-21T11:41:57;2.13;;;0.60;;
62903;SDS011;49000;50.698;13.322;2023-03-21T11:44:24;1.13;;;0.70;;
62903;SDS011;49000;50.698;13.322;2023-03-21T11:46:55;0.50;;;0.47;;
62903;SDS011;49000;50.698;13.322;2023-03-21T11:49:21;0.70;;;0.50;;
62903;SDS011;49000;50.698;13.322;2023-03-21T11:57:43;0.87;;;0.60;;
62903;SDS011;49000;50.698;13.322;2023-03-21T12:00:20;0.60;;;0.40;;
62903;SDS011;49000;50.698;13.322;2023-03-21T12:05:34;0.70;;;0.40;;
62903;SDS011;49000;50.698;13.322;2023-03-21T12:08:18;0.77;;;0.50;;
62903;SDS011;49000;50.698;13.322;2023-03-21T12:10:53;0.40;;;0.30;;
62903;SDS011;49000;50.698;13.322;2023-03-21T12:16:32;0.50;;;0.40;;
62903;SDS011;49000;50.698;13.322;2023-03-21T12:19:05;1.20;;;0.50;;
62903;SDS011;49000;50.698;13.322;2023-03-21T12:21:52;0.97;;;0.50;;
62903;SDS011;49000;50.698;13.322;2023-03-21T12:24:41;0.33;;;0.33;;
62903;SDS011;49000;50.698;13.322;2023-03-21T12:30:29;0.57;;;0.53;;
62903;SDS011;49000;50.698;13.322;2023-03-21T12:35:38;0.87;;;0.60;;
62903;SDS011;49000;50.698;13.322;2023-03-21T12:41:23;0.57;;;0.40;;
62903;SDS011;49000;50.698;13.322;2023-03-21T12:44:00;0.50;;;0.40;;
62903;SDS011;49000;50.698;13.322;2023-03-21T12:46:33;0.40;;;0.40;;
62903;SDS011;49000;50.698;13.322;2023-03-21T12:49:22;1.83;;;0.60;;
62903;SDS011;49000;50.698;13.322;2023-03-21T12:51:52;0.70;;;0.53;;
62903;SDS011;49000;50.698;13.322;2023-03-21T12:59:47;1.33;;;0.70;;
62903;SDS011;49000;50.698;13.322;2023-03-21T13:02:33;1.30;;;0.60;;
62903;SDS011;49000;50.698;13.322;2023-03-21T13:05:09;1.20;;;0.67;;
62903;SDS011;49000;50.698;13.322;2023-03-21T13:07:49;0.50;;;0.50;;
62903;SDS011;49000;50.698;13.322;2023-03-21T13:10:19;0.80;;;0.70;;
62903;SDS011;49000;50.698;13.322;2023-03-21T13:15:59;0.67;;;0.60;;
62903;SDS011;49000;50.698;13.322;2023-03-21T13:20:57;1.00;;;0.70;;
62903;SDS011;49000;50.698;13.322;2023-03-21T13:23:32;1.60;;;0.80;;
62903;SDS011;49000;50.698;13.322;2023-03-21T13:26:00;2.97;;;0.70;;
62903;SDS011;49000;50.698;13.322;2023-03-21T13:28:26;0.70;;;0.70;;
62903;SDS011;49000;50.698;13.322;2023-03-21T13:31:13;1.17;;;0.87;;
62903;SDS011;49000;50.698;13.322;2023-03-21T13:33:39;0.50;;;0.50;;
62903;SDS011;49000;50.698;13.322;2023-03-21T13:36:11;0.90;;;0.70;;
62903;SDS011;49000;50.698;13.322;2023-03-21T13:38:38;1.10;;;0.70;;
62903;SDS011;49000;50.698;13.322;2023-03-21T13:41:11;1.33;;;0.90;;
62903;SDS011;49000;50.698;13.322;2023-03-21T13:43:43;1.10;;;1.00;;
62903;SDS011;49000;50.698;13.322;2023-03-21T13:51:44;0.60;;;0.60;;
62903;SDS011;49000;50.698;13.322;2023-03-21T13:54:20;1.20;;;0.70;;
62903;SDS011;49000;50.698;13.322;2023-03-21T13:57:11;2.37;;;1.00;;
62903;SDS011;49000;50.698;13.322;2023-03-21T13:59:45;0.97;;;0.70;;
62903;SDS011;49000;50.698;13.322;2023-03-21T14:02:29;0.90;;;0.60;;
62903;SDS011;49000;50.698;13.322;2023-03-21T14:04:58;0.97;;;0.70;;
62903;SDS011;49000;50.698;13.322;2023-03-21T14:07:27;1.23;;;0.70;;
62903;SDS011;49000;50.698;13.322;2023-03-21T14:09:56;0.80;;;0.70;;
62903;SDS011;49000;50.698;13.322;2023-03-21T14:12:35;1.13;;;0.70;;
62903;SDS011;49000;50.698;13.322;2023-03-21T14:15:05;1.30;;;0.67;;
62903;SDS011;49000;50.698;13.322;2023-03-21T14:17:47;0.93;;;0.70;;
62903;SDS011;49000;50.698;13.322;2023-03-21T14:22:57;1.17;;;0.70;;
62903;SDS011;49000;50.698;13.322;2023-03-21T14:25:24;1.60;;;0.70;;
62903;SDS011;49000;50.698;13.322;2023-03-21T14:27:56;1.40;;;0.70;;
62903;SDS011;49000;50.698;13.322;2023-03-21T14:30:26;0.83;;;0.60;;
62903;SDS011;49000;50.698;13.322;2023-03-21T14:35:44;2.03;;;0.73;;
62903;SDS011;49000;50.698;13.322;2023-03-21T14:38:52;2.10;;;1.20;;
62903;SDS011;49000;50.698;13.322;2023-03-21T14:41:04;2.43;;;1.20;;
62903;SDS011;49000;50.698;13.322;2023-03-21T14:43:42;2.10;;;1.40;;
62903;SDS011;49000;50.698;13.322;2023-03-21T14:46:10;1.77;;;1.40;;
62903;SDS011;49000;50.698;13.322;2023-03-21T14:48:37;3.33;;;1.30;;
62903;SDS011;49000;50.698;13.322;2023-03-21T14:51:05;1.70;;;1.40;;
62903;SDS011;49000;50.698;13.322;2023-03-21T14:53:35;3.40;;;1.50;;
62903;SDS011;49000;50.698;13.322;2023-03-21T14:56:15;1.67;;;1.37;;
62903;SDS011;49000;50.698;13.322;2023-03-21T14:58:45;1.83;;;1.20;;
62903;SDS011;49000;50.698;13.322;2023-03-21T15:01:15;2.17;;;1.40;;
62903;SDS011;49000;50.698;13.322;2023-03-21T15:03:48;2.43;;;1.10;;
62903;SDS011;49000;50.698;13.322;2023-03-21T15:06:15;2.10;;;1.43;;
62903;SDS011;49000;50.698;13.322;2023-03-21T15:08:52;3.23;;;1.30;;
62903;SDS011;49000;50.698;13.322;2023-03-21T15:11:19;3.13;;;1.37;;
62903;SDS011;49000;50.698;13.322;2023-03-21T15:13:58;1.33;;;1.17;;
62903;SDS011;49000;50.698;13.322;2023-03-21T15:16:29;1.50;;;0.97;;
62903;SDS011;49000;50.698;13.322;2023-03-21T15:18:55;2.77;;;1.20;;
62903;SDS011;49000;50.698;13.322;2023-03-21T15:21:24;1.37;;;0.80;;
62903;SDS011;49000;50.698;13.322;2023-03-21T15:23:55;1.30;;;1.07;;
62903;SDS011;49000;50.698;13.322;2023-03-21T15:26:24;2.33;;;1.00;;
62903;SDS011;49000;50.698;13.322;2023-03-21T15:28:53;1.50;;;1.10;;
62903;SDS011;49000;50.698;13.322;2023-03-21T15:31:21;2.20;;;1.20;;
62903;SDS011;49000;50.698;13.322;2023-03-21T15:33:50;2.33;;;1.00;;
62903;SDS011;49000;50.698;13.322;2023-03-21T15:36:21;1.87;;;0.97;;
62903;SDS011;49000;50.698;13.322;2023-03-21T15:38:47;1.70;;;1.20;;
62903;SDS011;49000;50.698;13.322;2023-03-21T15:46:41;1.93;;;1.07;;
62903;SDS011;49000;50.698;13.322;2023-03-21T15:51:39;2.53;;;1.20;;
62903;SDS011;49000;50.698;13.322;2023-03-21T15:54:13;3.43;;;1.10;;
62903;SDS011;49000;50.698;13.322;2023-03-21T15:56:48;1.27;;;1.07;;
62903;SDS011;49000;50.698;13.322;2023-03-21T15:59:18;1.80;;;0.80;;
62903;SDS011;49000;50.698;13.322;2023-03-21T16:01:48;1.13;;;0.90;;